createdAt,value
2018-04-01T00:00:07.952Z,6.32
2018-04-01T00:02:34.349Z,6.37
2018-04-01T00:05:00.679Z,6.40
2018-04-01T00:07:27.030Z,6.90
2018-04-01T00:09:53.416Z,10.13
2018-04-01T00:12:20.035Z,7.65
2018-04-01T00:14:46.675Z,6.70
2018-04-01T00:17:13.031Z,7.50
2018-04-01T00:19:39.403Z,6.90
2018-04-01T00:22:06.074Z,6.60
2018-04-01T00:24:32.479Z,7.30
2018-04-01T00:26:58.834Z,6.28
2018-04-01T00:29:25.203Z,5.00
2018-04-01T00:31:51.570Z,5.20
2018-04-01T00:34:17.901Z,4.97
2018-04-01T00:36:44.246Z,4.57
2018-04-01T00:39:10.639Z,4.53
2018-04-01T00:41:36.981Z,4.80
2018-04-01T00:44:03.314Z,5.50
2018-04-01T00:46:29.689Z,6.20
2018-04-01T00:48:56.337Z,6.68
2018-04-01T00:51:22.674Z,6.67
2018-04-01T00:53:49.084Z,6.70
2018-04-01T00:56:15.421Z,6.60
2018-04-01T00:58:42.073Z,6.80
2018-04-01T01:01:08.429Z,6.47
2018-04-01T01:03:35.047Z,7.00
2018-04-01T01:06:01.482Z,6.60
2018-04-01T01:08:27.875Z,5.40
2018-04-01T01:10:54.210Z,5.00
2018-04-01T01:13:20.605Z,5.20
2018-04-01T01:15:46.999Z,5.40
2018-04-01T01:18:13.330Z,5.07
2018-04-01T01:20:39.680Z,4.53
2018-04-01T01:23:06.061Z,4.47
2018-04-01T01:25:32.394Z,4.10
2018-04-01T01:27:58.745Z,4.30
2018-04-01T01:30:25.146Z,3.77
2018-04-01T01:32:51.509Z,3.40
2018-04-01T01:35:17.838Z,3.10
2018-04-01T01:37:44.491Z,3.40
2018-04-01T01:40:10.830Z,3.60
2018-04-01T01:42:37.171Z,3.50
2018-04-01T01:45:03.749Z,3.63
2018-04-01T01:47:30.325Z,4.10
2018-04-01T01:49:57.071Z,4.55
2018-04-01T01:52:23.433Z,5.57
2018-04-01T01:54:49.786Z,6.20
2018-04-01T01:57:16.136Z,6.50
2018-04-01T01:59:42.503Z,7.57
2018-04-01T02:02:09.140Z,5.60
2018-04-01T02:04:35.482Z,6.10
2018-04-01T02:07:01.855Z,4.37
2018-04-01T02:09:28.193Z,3.90
2018-04-01T02:11:54.766Z,4.10
2018-04-01T02:14:21.126Z,4.20
2018-04-01T02:16:47.738Z,3.40
2018-04-01T02:19:14.119Z,3.90
2018-04-01T02:21:40.510Z,3.72
2018-04-01T02:24:07.141Z,3.70
2018-04-01T02:26:33.522Z,4.32
2018-04-01T02:28:59.917Z,7.45
2018-04-01T02:31:26.323Z,5.60
2018-04-01T02:33:52.632Z,6.50
2018-04-01T02:36:19.036Z,5.72
2018-04-01T02:38:45.370Z,5.65
2018-04-01T02:41:11.751Z,5.75
2018-04-01T02:43:38.146Z,5.10
2018-04-01T02:46:04.531Z,6.60
2018-04-01T02:48:31.172Z,5.10
2018-04-01T02:50:57.814Z,4.93
2018-04-01T02:53:24.191Z,5.30
2018-04-01T02:55:50.519Z,6.87
2018-04-01T02:58:17.230Z,6.82
2018-04-01T03:00:43.567Z,6.82
2018-04-01T03:03:09.905Z,5.60
2018-04-01T03:05:36.267Z,6.15
2018-04-01T03:08:02.951Z,5.18
2018-04-01T03:10:29.577Z,4.53
2018-04-01T03:12:55.972Z,3.90
2018-04-01T03:15:22.306Z,3.90
2018-04-01T03:17:48.681Z,4.20
2018-04-01T03:20:15.318Z,4.68
2018-04-01T03:22:41.693Z,4.53
2018-04-01T03:25:08.050Z,4.30
2018-04-01T03:27:34.719Z,4.50
2018-04-01T03:30:01.363Z,4.30
2018-04-01T03:32:27.693Z,4.75
2018-04-01T03:34:54.331Z,5.25
2018-04-01T03:37:20.699Z,5.75
2018-04-01T03:39:47.074Z,6.15
2018-04-01T03:42:13.470Z,5.85
2018-04-01T03:44:40.063Z,7.10
2018-04-01T03:47:06.415Z,5.87
2018-04-01T03:49:33.029Z,6.30
2018-04-01T03:51:59.666Z,6.87
2018-04-01T03:54:26.311Z,6.37
2018-04-01T03:56:52.703Z,5.20
2018-04-01T03:59:19.274Z,6.65
2018-04-01T04:01:45.651Z,5.35
2018-04-01T04:04:12.018Z,7.72
2018-04-01T04:06:38.395Z,5.80
2018-04-01T04:09:05.016Z,6.45
2018-04-01T04:11:31.402Z,5.75
2018-04-01T04:13:57.767Z,5.78
2018-04-01T04:16:24.102Z,7.90
2018-04-01T04:18:50.481Z,6.70
2018-04-01T04:21:16.854Z,6.50
2018-04-01T04:23:43.198Z,7.50
2018-04-01T04:26:09.563Z,7.47
2018-04-01T04:28:35.901Z,7.10
2018-04-01T04:31:02.286Z,7.97
2018-04-01T04:33:28.679Z,8.15
2018-04-01T04:35:55.266Z,7.87
2018-04-01T04:38:21.905Z,7.62
2018-04-01T04:40:48.546Z,7.75
2018-04-01T04:43:15.114Z,8.18
2018-04-01T04:45:41.483Z,6.00
2018-04-01T04:48:08.150Z,8.20
2018-04-01T04:50:34.502Z,8.27
2018-04-01T04:53:01.064Z,6.70
2018-04-01T04:55:27.763Z,8.30
2018-04-01T04:57:54.398Z,7.25
2018-04-01T05:00:21.033Z,7.17
2018-04-01T05:02:47.440Z,8.18
2018-04-01T05:05:13.803Z,8.77
2018-04-01T05:07:40.147Z,9.68
2018-04-01T05:10:06.879Z,7.62
2018-04-01T05:12:33.209Z,6.80
2018-04-01T05:14:59.549Z,8.30
2018-04-01T05:17:25.943Z,8.70
2018-04-01T05:19:52.281Z,9.88
2018-04-01T05:22:18.649Z,8.70
2018-04-01T05:24:45.047Z,10.25
2018-04-01T05:27:11.382Z,10.70
2018-04-01T05:29:38.039Z,8.35
2018-04-01T05:32:04.406Z,8.85
2018-04-01T05:34:31.111Z,8.43
2018-04-01T05:36:57.487Z,7.82
2018-04-01T05:39:24.084Z,7.00
2018-04-01T05:41:50.430Z,7.70
2018-04-01T05:44:16.765Z,8.40
2018-04-01T05:46:43.490Z,9.02
2018-04-01T05:49:10.128Z,7.05
2018-04-01T05:51:36.533Z,7.72
2018-04-01T05:54:03.199Z,7.80
2018-04-01T05:56:29.844Z,10.52
2018-04-01T05:58:56.172Z,9.77
2018-04-01T06:01:22.578Z,10.82
2018-04-01T06:03:48.954Z,10.50
2018-04-01T06:06:15.343Z,9.75
2018-04-01T06:08:41.698Z,9.30
2018-04-01T06:11:08.055Z,9.27
2018-04-01T06:13:34.415Z,8.63
2018-04-01T06:16:00.808Z,11.25
2018-04-01T06:18:27.157Z,8.95
2018-04-01T06:20:53.757Z,8.40
2018-04-01T06:23:20.151Z,8.63
2018-04-01T06:25:46.494Z,10.77
2018-04-01T06:28:12.833Z,8.43
2018-04-01T06:30:39.243Z,8.90
2018-04-01T06:33:05.639Z,7.55
2018-04-01T06:35:31.977Z,7.18
2018-04-01T06:37:58.586Z,9.05
2018-04-01T06:40:24.935Z,8.48
2018-04-01T06:42:51.557Z,8.15
2018-04-01T06:45:17.928Z,11.57
2018-04-01T06:47:44.297Z,8.25
2018-04-01T06:50:10.667Z,9.30
2018-04-01T06:52:37.021Z,8.20
2018-04-01T06:55:03.427Z,7.70
2018-04-01T06:57:29.973Z,9.30
2018-04-01T06:59:56.403Z,9.10
2018-04-01T07:02:22.784Z,8.80
2018-04-01T07:04:49.113Z,8.80
2018-04-01T07:07:15.519Z,7.97
2018-04-01T07:09:41.887Z,8.20
2018-04-01T07:12:08.237Z,7.75
2018-04-01T07:14:34.659Z,8.35
2018-04-01T07:17:01.019Z,7.20
2018-04-01T07:19:27.390Z,7.57
2018-04-01T07:21:53.753Z,7.00
2018-04-01T07:24:20.110Z,6.78
2018-04-01T07:26:46.480Z,6.65
2018-04-01T07:29:13.180Z,6.30
2018-04-01T07:31:39.818Z,6.00
2018-04-01T07:34:06.159Z,6.70
2018-04-01T07:36:32.529Z,6.70
2018-04-01T07:38:58.881Z,6.70
2018-04-01T07:41:25.251Z,7.93
2018-04-01T07:43:51.614Z,8.10
2018-04-01T07:46:17.992Z,12.20
2018-04-01T07:48:44.363Z,7.90
2018-04-01T07:51:10.989Z,8.10
2018-04-01T07:53:37.330Z,11.07
2018-04-01T07:56:03.673Z,10.65
2018-04-01T07:58:30.095Z,10.38
2018-04-01T08:00:56.716Z,8.77
2018-04-01T08:03:23.083Z,11.27
2018-04-01T08:05:49.450Z,9.93
2018-04-01T08:08:15.794Z,12.23
2018-04-01T08:10:42.450Z,13.23
2018-04-01T08:13:08.821Z,11.98
2018-04-01T08:15:35.427Z,20.05
2018-04-01T08:18:01.819Z,20.52
2018-04-01T08:20:28.190Z,15.85
2018-04-01T08:22:54.563Z,11.12
2018-04-01T08:25:20.918Z,10.80
2018-04-01T08:27:47.310Z,11.00
2018-04-01T08:30:13.684Z,10.80
2018-04-01T08:32:40.103Z,9.70
2018-04-01T08:35:06.429Z,10.48
2018-04-01T08:37:32.823Z,11.57
2018-04-01T08:39:59.161Z,9.85
2018-04-01T08:42:25.542Z,10.45
2018-04-01T08:44:52.210Z,11.05
2018-04-01T08:47:18.855Z,10.93
2018-04-01T08:49:45.593Z,9.50
2018-04-01T08:52:11.930Z,9.07
2018-04-01T08:54:38.565Z,11.00
2018-04-01T08:57:05.201Z,9.38
2018-04-01T08:59:31.579Z,9.32
2018-04-01T09:01:57.985Z,7.70
2018-04-01T09:04:24.346Z,9.25
2018-04-01T09:06:50.693Z,9.85
2018-04-01T09:09:17.038Z,9.27
2018-04-01T09:11:43.511Z,8.02
2018-04-01T09:14:10.135Z,8.00
2018-04-01T09:16:36.506Z,8.52
2018-04-01T09:19:02.902Z,7.75
2018-04-01T09:21:29.291Z,7.57
2018-04-01T09:23:55.635Z,8.45
2018-04-01T09:26:22.080Z,8.43
2018-04-01T09:28:48.826Z,7.80
2018-04-01T09:31:15.193Z,8.60
2018-04-01T09:33:41.583Z,8.02
2018-04-01T09:36:07.926Z,8.27
2018-04-01T09:38:34.567Z,7.18
2018-04-01T09:41:00.937Z,7.27
2018-04-01T09:43:27.273Z,8.35
2018-04-01T09:45:53.868Z,7.28
2018-04-01T09:48:20.239Z,7.95
2018-04-01T09:50:46.618Z,6.72
2018-04-01T09:53:12.981Z,7.05
2018-04-01T09:55:39.601Z,7.70
2018-04-01T09:58:06.247Z,7.65
2018-04-01T10:00:33.085Z,7.95
2018-04-01T10:02:59.685Z,8.27
2018-04-01T10:05:26.298Z,9.35
2018-04-01T10:07:53.108Z,8.15
2018-04-01T10:10:19.940Z,9.10
2018-04-01T10:12:46.758Z,8.82
2018-04-01T10:15:13.562Z,9.05
2018-04-01T10:17:40.386Z,8.98
2018-04-01T10:20:07.223Z,8.23
2018-04-01T10:22:33.982Z,8.23
2018-04-01T10:25:00.823Z,7.62
2018-04-01T10:27:27.608Z,8.20
2018-04-01T10:29:54.695Z,8.05
2018-04-01T10:32:22.441Z,7.10
2018-04-01T10:34:49.506Z,8.40
2018-04-01T10:37:16.551Z,8.13
2018-04-01T10:39:43.393Z,8.40
2018-04-01T10:42:10.195Z,9.27
2018-04-01T10:44:37.286Z,8.20
2018-04-01T10:47:04.094Z,9.70
2018-04-01T10:49:31.224Z,9.40
2018-04-01T10:51:57.995Z,12.63
2018-04-01T10:54:24.867Z,10.30
2018-04-01T10:56:51.462Z,10.40
2018-04-01T10:59:17.827Z,8.40
2018-04-01T11:01:44.194Z,7.90
2018-04-01T11:04:10.537Z,12.20
2018-04-01T11:06:37.239Z,9.10
2018-04-01T11:09:03.879Z,10.38
2018-04-01T11:11:30.271Z,9.70
2018-04-01T11:13:56.586Z,10.10
2018-04-01T11:16:22.988Z,9.02
2018-04-01T11:18:49.605Z,9.10
2018-04-01T11:21:16.178Z,10.07
2018-04-01T11:23:42.562Z,9.13
2018-04-01T11:26:08.902Z,10.70
2018-04-01T11:28:35.293Z,10.52
2018-04-01T11:31:01.705Z,11.32
2018-04-01T11:33:28.050Z,9.88
2018-04-01T11:35:54.431Z,13.60
2018-04-01T11:38:21.022Z,10.75
2018-04-01T11:40:47.374Z,8.60
2018-04-01T11:43:13.714Z,9.35
2018-04-01T11:45:40.129Z,12.35
2018-04-01T11:48:06.499Z,8.33
2018-04-01T11:50:32.891Z,6.95
2018-04-01T11:52:59.296Z,8.20
2018-04-01T11:55:25.660Z,7.32
2018-04-01T11:57:52.038Z,7.45
2018-04-01T12:00:18.778Z,6.75
2018-04-01T12:02:45.411Z,9.10
2018-04-01T12:05:11.816Z,6.37
2018-04-01T12:07:38.215Z,6.60
2018-04-01T12:10:04.814Z,6.10
2018-04-01T12:12:31.200Z,6.50
2018-04-01T12:14:57.591Z,6.68
2018-04-01T12:17:23.934Z,6.18
2018-04-01T12:19:50.556Z,5.97
2018-04-01T12:22:17.189Z,5.40
2018-04-01T12:24:43.825Z,6.40
2018-04-01T12:27:10.471Z,6.15
2018-04-01T12:29:37.210Z,5.97
2018-04-01T12:32:03.583Z,5.20
2018-04-01T12:34:30.176Z,4.90
2018-04-01T12:36:56.543Z,4.62
2018-04-01T12:39:22.911Z,4.30
2018-04-01T12:41:49.281Z,4.57
2018-04-01T12:44:16.020Z,4.28
2018-04-01T12:46:42.396Z,3.80
2018-04-01T12:49:08.759Z,3.72
2018-04-01T12:51:35.156Z,3.50
2018-04-01T12:54:01.517Z,3.60
2018-04-01T12:56:27.883Z,3.72
2018-04-01T12:58:54.269Z,4.20
2018-04-01T13:01:20.610Z,5.55
2018-04-01T13:03:46.992Z,4.28
2018-04-01T13:06:13.610Z,26.37
2018-04-01T13:08:39.996Z,6.37
2018-04-01T13:11:06.578Z,4.90
2018-04-01T13:13:32.942Z,5.10
2018-04-01T13:15:59.315Z,4.80
2018-04-01T13:18:25.691Z,6.12
2018-04-01T13:20:52.084Z,4.85
2018-04-01T13:23:18.752Z,5.25
2018-04-01T13:25:45.082Z,5.28
2018-04-01T13:28:11.489Z,4.60
2018-04-01T13:30:37.878Z,5.35
2018-04-01T13:33:04.230Z,5.12
2018-04-01T13:35:30.595Z,5.33
2018-04-01T13:37:56.981Z,5.50
2018-04-01T13:40:23.686Z,5.50
2018-04-01T13:42:50.424Z,6.82
2018-04-01T13:45:16.791Z,5.60
2018-04-01T13:47:43.386Z,6.20
2018-04-01T13:50:09.763Z,6.78
2018-04-01T13:52:36.135Z,7.10
2018-04-01T13:55:02.498Z,6.68
2018-04-01T13:57:28.865Z,6.70
2018-04-01T13:59:55.211Z,7.10
2018-04-01T14:02:21.587Z,7.82
2018-04-01T14:04:48.230Z,8.63
2018-04-01T14:07:14.594Z,7.03
2018-04-01T14:09:41.162Z,6.65
2018-04-01T14:12:07.830Z,6.50
2018-04-01T14:14:34.219Z,6.80
2018-04-01T14:17:00.904Z,7.53
2018-04-01T14:19:27.543Z,6.40
2018-04-01T14:21:54.175Z,6.90
2018-04-01T14:24:20.521Z,8.13
2018-04-01T14:26:46.928Z,6.70
2018-04-01T14:29:13.290Z,6.70
2018-04-01T14:31:39.671Z,6.37
2018-04-01T14:34:06.031Z,7.30
2018-04-01T14:36:32.826Z,9.95
2018-04-01T14:38:59.149Z,6.72
2018-04-01T14:41:25.857Z,7.62
2018-04-01T14:43:52.190Z,7.97
2018-04-01T14:46:18.922Z,8.10
2018-04-01T14:48:45.559Z,7.40
2018-04-01T14:51:11.934Z,8.27
2018-04-01T14:53:38.270Z,9.20
2018-04-01T14:56:04.662Z,11.27
2018-04-01T14:58:31.030Z,10.45
2018-04-01T15:00:57.402Z,8.30
2018-04-01T15:03:23.782Z,9.38
2018-04-01T15:05:50.389Z,8.90
2018-04-01T15:08:16.784Z,10.00
2018-04-01T15:10:43.461Z,11.50
2018-04-01T15:13:09.815Z,10.05
2018-04-01T15:15:36.157Z,9.93
2018-04-01T15:18:02.517Z,11.33
2018-04-01T15:20:28.900Z,10.90
2018-04-01T15:22:55.272Z,11.23
2018-04-01T15:25:21.672Z,9.18
2018-04-01T15:27:48.087Z,12.32
2018-04-01T15:30:14.728Z,11.63
2018-04-01T15:32:41.138Z,12.60
2018-04-01T15:35:07.507Z,17.10
2018-04-01T15:37:33.883Z,20.63
2018-04-01T15:40:00.567Z,16.62
2018-04-01T15:42:26.968Z,15.38
2018-04-01T15:44:53.633Z,14.82
2018-04-01T15:47:20.280Z,15.65
2018-04-01T15:49:46.647Z,11.88
2018-04-01T15:52:13.117Z,13.45
2018-04-01T15:54:39.786Z,12.15
2018-04-01T15:57:06.159Z,13.00
2018-04-01T15:59:32.519Z,13.62
2018-04-01T16:01:58.910Z,14.38
2018-04-01T16:04:25.283Z,12.70
2018-04-01T16:06:51.672Z,13.57
2018-04-01T16:09:18.033Z,12.25
2018-04-01T16:11:44.716Z,11.88
2018-04-01T16:14:11.095Z,12.30
2018-04-01T16:16:37.793Z,12.77
2018-04-01T16:19:04.410Z,13.85
2018-04-01T16:21:30.748Z,18.12
2018-04-01T16:23:57.390Z,22.83
2018-04-01T16:26:23.758Z,38.58
2018-04-01T16:28:50.105Z,24.40
2018-04-01T16:31:16.799Z,21.98
2018-04-01T16:33:43.145Z,15.00
2018-04-01T16:36:09.769Z,11.82
2018-04-01T16:38:36.167Z,13.65
2018-04-01T16:41:02.548Z,14.13
2018-04-01T16:43:29.169Z,14.27
2018-04-01T16:45:55.559Z,14.73
2018-04-01T16:48:21.932Z,15.70
2018-04-01T16:50:48.320Z,15.50
2018-04-01T16:53:14.901Z,14.55
2018-04-01T16:55:41.257Z,15.23
2018-04-01T16:58:07.641Z,14.35
2018-04-01T17:00:34.017Z,14.80
2018-04-01T17:03:00.399Z,23.95
2018-04-01T17:05:26.772Z,24.25
2018-04-01T17:07:53.407Z,21.27
2018-04-01T17:10:20.224Z,18.65
2018-04-01T17:12:46.651Z,15.82
2018-04-01T17:15:13.327Z,14.45
2018-04-01T17:17:39.699Z,17.02
2018-04-01T17:20:06.042Z,15.20
2018-04-01T17:22:32.836Z,15.35
2018-04-01T17:24:59.186Z,17.00
2018-04-01T17:27:25.534Z,15.35
2018-04-01T17:29:52.242Z,16.45
2018-04-01T17:32:18.611Z,15.18
2018-04-01T17:34:44.994Z,18.42
2018-04-01T17:37:11.361Z,18.90
2018-04-01T17:39:37.778Z,22.10
2018-04-01T17:42:04.165Z,17.65
2018-04-01T17:44:30.537Z,18.85
2018-04-01T17:46:57.162Z,19.65
2018-04-01T17:49:23.522Z,20.20
2018-04-01T17:51:49.915Z,18.48
2018-04-01T17:54:16.304Z,21.05
2018-04-01T17:56:42.682Z,21.05
2018-04-01T17:59:09.334Z,20.10
2018-04-01T18:01:35.676Z,20.65
2018-04-01T18:04:02.251Z,21.67
2018-04-01T18:06:28.940Z,22.95
2018-04-01T18:08:55.319Z,21.60
2018-04-01T18:11:21.901Z,20.15
2018-04-01T18:13:48.315Z,21.42
2018-04-01T18:16:14.974Z,21.23
2018-04-01T18:18:41.396Z,26.20
2018-04-01T18:21:07.760Z,21.48
2018-04-01T18:23:34.105Z,22.35
2018-04-01T18:26:00.710Z,24.10
2018-04-01T18:28:27.087Z,21.33
2018-04-01T18:30:53.445Z,20.27
2018-04-01T18:33:19.828Z,27.40
2018-04-01T18:35:46.395Z,22.45
2018-04-01T18:38:12.774Z,21.17
2018-04-01T18:40:39.112Z,25.62
2018-04-01T18:43:05.863Z,24.25
2018-04-01T18:45:32.206Z,24.50
2018-04-01T18:47:58.554Z,23.00
2018-04-01T18:50:24.971Z,24.77
2018-04-01T18:52:51.316Z,33.50
2018-04-01T18:55:17.672Z,32.10
2018-04-01T18:57:44.351Z,28.07
2018-04-01T19:00:10.739Z,25.02
2018-04-01T19:02:37.116Z,24.37
2018-04-01T19:05:03.751Z,26.75
2018-04-01T19:07:30.133Z,24.83
2018-04-01T19:09:56.480Z,26.90
2018-04-01T19:12:22.903Z,28.35
2018-04-01T19:14:49.284Z,29.55
2018-04-01T19:17:15.866Z,31.62
2018-04-01T19:19:42.971Z,26.37
2018-04-01T19:22:10.013Z,24.60
2018-04-01T19:24:37.167Z,32.28
2018-04-01T19:27:04.318Z,31.17
2018-04-01T19:29:31.470Z,42.05
2018-04-01T19:31:58.287Z,30.77
2018-04-01T19:34:25.102Z,30.95
2018-04-01T19:36:52.207Z,26.92
2018-04-01T19:39:19.357Z,24.42
2018-04-01T19:41:46.203Z,23.92
2018-04-01T19:44:13.027Z,25.45
2018-04-01T19:46:40.089Z,21.20
2018-04-01T19:49:06.934Z,18.92
2018-04-01T19:51:33.927Z,20.75
2018-04-01T19:54:00.742Z,21.35
2018-04-01T19:56:27.601Z,19.87
2018-04-01T19:58:54.618Z,21.98
2018-04-01T20:01:21.409Z,24.58
2018-04-01T20:03:48.315Z,22.67
2018-04-01T20:06:15.162Z,24.42
2018-04-01T20:08:42.289Z,21.85
2018-04-01T20:11:09.441Z,26.12
2018-04-01T20:13:36.264Z,23.20
2018-04-01T20:16:03.436Z,21.25
2018-04-01T20:18:30.282Z,23.62
2018-04-01T20:20:57.440Z,21.35
2018-04-01T20:23:24.247Z,20.58
2018-04-01T20:25:51.430Z,20.08
2018-04-01T20:28:18.465Z,18.37
2018-04-01T20:30:45.517Z,25.10
2018-04-01T20:33:12.672Z,17.98
2018-04-01T20:35:39.459Z,15.30
2018-04-01T20:38:06.286Z,15.40
2018-04-01T20:40:33.122Z,13.62
2018-04-01T20:42:59.918Z,14.82
2018-04-01T20:45:26.799Z,12.52
2018-04-01T20:47:53.604Z,12.40
2018-04-01T20:50:20.444Z,18.98
2018-04-01T20:52:47.281Z,12.95
2018-04-01T20:55:14.132Z,14.10
2018-04-01T20:57:40.918Z,10.40
2018-04-01T21:00:07.723Z,15.70
2018-04-01T21:02:34.584Z,15.00
2018-04-01T21:05:01.377Z,11.10
2018-04-01T21:07:28.471Z,10.55
2018-04-01T21:09:55.317Z,9.53
2018-04-01T21:12:22.566Z,10.73
2018-04-01T21:14:49.395Z,10.60
2018-04-01T21:17:16.211Z,10.25
2018-04-01T21:19:43.311Z,13.95
2018-04-01T21:22:10.355Z,14.43
2018-04-01T21:24:37.198Z,12.43
2018-04-01T21:27:03.997Z,13.23
2018-04-01T21:29:31.102Z,12.85
2018-04-01T21:31:57.924Z,13.40
2018-04-01T21:34:24.723Z,14.98
2018-04-01T21:36:51.823Z,14.80
2018-04-01T21:39:18.642Z,16.73
2018-04-01T21:41:45.715Z,15.48
2018-04-01T21:44:12.514Z,16.90
2018-04-01T21:46:39.339Z,16.95
2018-04-01T21:49:06.176Z,16.90
2018-04-01T21:51:33.008Z,14.80
2018-04-01T21:53:59.859Z,16.30
2018-04-01T21:56:26.977Z,18.10
2018-04-01T21:58:53.799Z,16.02
2018-04-01T22:01:20.610Z,16.95
2018-04-01T22:03:47.401Z,17.00
2018-04-01T22:06:14.198Z,18.95
2018-04-01T22:08:41.056Z,18.73
2018-04-01T22:11:07.871Z,19.98
2018-04-01T22:13:35.029Z,19.00
2018-04-01T22:16:01.827Z,19.42
2018-04-01T22:18:28.976Z,19.48
2018-04-01T22:20:55.770Z,17.80
2018-04-01T22:23:22.633Z,19.20
2018-04-01T22:25:49.422Z,18.90
2018-04-01T22:28:16.449Z,18.12
2018-04-01T22:30:43.266Z,24.00
2018-04-01T22:33:10.091Z,19.02
2018-04-01T22:35:36.889Z,19.08
2018-04-01T22:38:03.781Z,18.75
2018-04-01T22:40:30.562Z,19.95
2018-04-01T22:42:57.371Z,17.33
2018-04-01T22:45:24.553Z,19.33
2018-04-01T22:47:51.383Z,23.35
2018-04-01T22:50:18.183Z,21.55
2018-04-01T22:52:45.012Z,24.48
2018-04-01T22:55:11.867Z,22.40
2018-04-01T22:57:38.928Z,23.52
2018-04-01T23:00:05.789Z,23.48
2018-04-01T23:02:32.376Z,21.10
2018-04-01T23:04:59.507Z,19.98
2018-04-01T23:07:26.343Z,23.17
2018-04-01T23:09:53.169Z,22.10
2018-04-01T23:12:19.969Z,22.73
2018-04-01T23:14:46.796Z,23.02
2018-04-01T23:17:13.615Z,20.55
2018-04-01T23:19:40.524Z,23.23
2018-04-01T23:22:07.400Z,24.63
2018-04-01T23:24:34.222Z,20.33
2018-04-01T23:27:01.070Z,25.10
2018-04-01T23:29:28.138Z,20.00
2018-04-01T23:31:55.005Z,24.65
2018-04-01T23:34:21.843Z,19.70
2018-04-01T23:36:48.667Z,22.60
2018-04-01T23:39:15.611Z,25.45
2018-04-01T23:41:42.422Z,19.55
2018-04-01T23:44:09.214Z,22.67
2018-04-01T23:46:36.023Z,22.07
2018-04-01T23:49:02.895Z,20.37
2018-04-01T23:51:29.700Z,21.33
2018-04-01T23:53:56.489Z,21.92
2018-04-01T23:56:23.334Z,20.83
2018-04-01T23:58:50.360Z,29.48
